sensor_id;sensor_type;location;lat;lon;timestamp;P1;durP1;ratioP1;P2;durP2;ratioP2
77111;SDS011;66064;50.226;14.344;2023-02-07T00:00:47;90.35;;;82.25;;
77111;SDS011;66064;50.226;14.344;2023-02-07T00:03:34;87.57;;;78.65;;
77111;SDS011;66064;50.226;14.344;2023-02-07T00:08:33;84.93;;;77.60;;
77111;SDS011;66064;50.226;14.344;2023-02-07T00:11:03;77.38;;;69.40;;
77111;SDS011;66064;50.226;14.344;2023-02-07T00:13:30;79.88;;;70.93;;
77111;SDS011;66064;50.226;14.344;2023-02-07T00:15:56;77.95;;;70.75;;
77111;SDS011;66064;50.226;14.344;2023-02-07T00:18:24;71.70;;;65.50;;
77111;SDS011;66064;50.226;14.344;2023-02-07T00:20:59;72.28;;;65.80;;
77111;SDS011;66064;50.226;14.344;2023-02-07T00:23:28;79.10;;;72.53;;
77111;SDS011;66064;50.226;14.344;2023-02-07T00:25:54;70.80;;;63.72;;
77111;SDS011;66064;50.226;14.344;2023-02-07T00:28:20;73.28;;;66.45;;
77111;SDS011;66064;50.226;14.344;2023-02-07T00:30:46;79.18;;;71.45;;
77111;SDS011;66064;50.226;14.344;2023-02-07T00:33:12;68.63;;;62.83;;
77111;SDS011;66064;50.226;14.344;2023-02-07T00:35:38;77.35;;;69.25;;
77111;SDS011;66064;50.226;14.344;2023-02-07T00:38:05;85.05;;;77.57;;
77111;SDS011;66064;50.226;14.344;2023-02-07T00:40:30;61.60;;;55.03;;
77111;SDS011;66064;50.226;14.344;2023-02-07T00:42:56;83.15;;;75.53;;
77111;SDS011;66064;50.226;14.344;2023-02-07T00:45:22;74.93;;;68.15;;
77111;SDS011;66064;50.226;14.344;2023-02-07T00:47:48;70.15;;;65.03;;
77111;SDS011;66064;50.226;14.344;2023-02-07T00:50:14;72.80;;;65.72;;
77111;SDS011;66064;50.226;14.344;2023-02-07T00:52:40;79.32;;;71.93;;
77111;SDS011;66064;50.226;14.344;2023-02-07T00:55:06;75.78;;;69.22;;
77111;SDS011;66064;50.226;14.344;2023-02-07T00:57:32;75.97;;;68.50;;
77111;SDS011;66064;50.226;14.344;2023-02-07T00:59:58;66.95;;;60.35;;
77111;SDS011;66064;50.226;14.344;2023-02-07T01:02:24;79.63;;;72.20;;
77111;SDS011;66064;50.226;14.344;2023-02-07T01:04:50;76.43;;;68.55;;
77111;SDS011;66064;50.226;14.344;2023-02-07T01:07:16;82.05;;;75.30;;
77111;SDS011;66064;50.226;14.344;2023-02-07T01:09:42;77.25;;;70.00;;
77111;SDS011;66064;50.226;14.344;2023-02-07T01:12:08;57.78;;;46.33;;
77111;SDS011;66064;50.226;14.344;2023-02-07T01:14:33;76.60;;;69.20;;
77111;SDS011;66064;50.226;14.344;2023-02-07T01:16:59;72.45;;;65.75;;
77111;SDS011;66064;50.226;14.344;2023-02-07T01:19:25;70.88;;;63.92;;
77111;SDS011;66064;50.226;14.344;2023-02-07T01:21:51;71.53;;;64.80;;
77111;SDS011;66064;50.226;14.344;2023-02-07T01:24:17;70.25;;;63.78;;
77111;SDS011;66064;50.226;14.344;2023-02-07T01:26:43;70.22;;;62.80;;
77111;SDS011;66064;50.226;14.344;2023-02-07T01:29:09;71.70;;;65.88;;
77111;SDS011;66064;50.226;14.344;2023-02-07T01:31:40;74.75;;;57.10;;
77111;SDS011;66064;50.226;14.344;2023-02-07T01:34:06;64.45;;;57.33;;
77111;SDS011;66064;50.226;14.344;2023-02-07T01:36:33;59.78;;;53.35;;
77111;SDS011;66064;50.226;14.344;2023-02-07T01:38:58;76.13;;;68.88;;
77111;SDS011;66064;50.226;14.344;2023-02-07T01:41:24;85.35;;;76.90;;
77111;SDS011;66064;50.226;14.344;2023-02-07T01:46:32;71.82;;;64.97;;
77111;SDS011;66064;50.226;14.344;2023-02-07T01:49:09;77.00;;;67.65;;
77111;SDS011;66064;50.226;14.344;2023-02-07T01:51:39;74.88;;;68.60;;
77111;SDS011;66064;50.226;14.344;2023-02-07T01:54:09;90.43;;;80.78;;
77111;SDS011;66064;50.226;14.344;2023-02-07T01:56:37;91.13;;;81.47;;
77111;SDS011;66064;50.226;14.344;2023-02-07T01:59:07;99.72;;;86.30;;
77111;SDS011;66064;50.226;14.344;2023-02-07T02:01:33;98.60;;;87.15;;
77111;SDS011;66064;50.226;14.344;2023-02-07T02:04:00;100.45;;;75.25;;
77111;SDS011;66064;50.226;14.344;2023-02-07T02:06:27;80.28;;;72.63;;
77111;SDS011;66064;50.226;14.344;2023-02-07T02:08:55;72.43;;;65.50;;
77111;SDS011;66064;50.226;14.344;2023-02-07T02:16:36;74.88;;;67.93;;
77111;SDS011;66064;50.226;14.344;2023-02-07T02:33:41;78.75;;;70.47;;
77111;SDS011;66064;50.226;14.344;2023-02-07T02:38:49;67.30;;;61.20;;
77111;SDS011;66064;50.226;14.344;2023-02-07T02:41:31;71.45;;;65.60;;
77111;SDS011;66064;50.226;14.344;2023-02-07T02:44:10;73.15;;;67.20;;
77111;SDS011;66064;50.226;14.344;2023-02-07T02:46:41;76.95;;;68.07;;
77111;SDS011;66064;50.226;14.344;2023-02-07T02:49:10;79.20;;;71.70;;
77111;SDS011;66064;50.226;14.344;2023-02-07T02:51:39;81.93;;;62.95;;
77111;SDS011;66064;50.226;14.344;2023-02-07T02:54:23;84.97;;;75.60;;
77111;SDS011;66064;50.226;14.344;2023-02-07T03:05:20;69.13;;;61.78;;
77111;SDS011;66064;50.226;14.344;2023-02-07T03:11:20;53.50;;;44.45;;
77111;SDS011;66064;50.226;14.344;2023-02-07T03:13:59;73.25;;;67.15;;
77111;SDS011;66064;50.226;14.344;2023-02-07T03:16:36;78.82;;;72.93;;
77111;SDS011;66064;50.226;14.344;2023-02-07T03:19:34;50.75;;;45.60;;
77111;SDS011;66064;50.226;14.344;2023-02-07T03:22:09;70.45;;;64.50;;
77111;SDS011;66064;50.226;14.344;2023-02-07T03:24:40;73.35;;;66.93;;
77111;SDS011;66064;50.226;14.344;2023-02-07T03:27:13;80.85;;;74.05;;
77111;SDS011;66064;50.226;14.344;2023-02-07T03:29:43;74.82;;;69.13;;
77111;SDS011;66064;50.226;14.344;2023-02-07T03:32:12;77.13;;;70.85;;
77111;SDS011;66064;50.226;14.344;2023-02-07T03:34:42;80.85;;;73.95;;
77111;SDS011;66064;50.226;14.344;2023-02-07T03:37:34;82.05;;;74.55;;
77111;SDS011;66064;50.226;14.344;2023-02-07T03:40:22;74.53;;;69.18;;
77111;SDS011;66064;50.226;14.344;2023-02-07T03:42:57;84.97;;;77.25;;
77111;SDS011;66064;50.226;14.344;2023-02-07T03:45:28;83.05;;;77.07;;
77111;SDS011;66064;50.226;14.344;2023-02-07T03:47:55;88.45;;;80.32;;
77111;SDS011;66064;50.226;14.344;2023-02-07T03:50:20;69.70;;;63.08;;
77111;SDS011;66064;50.226;14.344;2023-02-07T03:52:46;79.55;;;72.97;;
77111;SDS011;66064;50.226;14.344;2023-02-07T03:55:13;75.93;;;68.93;;
77111;SDS011;66064;50.226;14.344;2023-02-07T03:57:39;65.75;;;56.83;;
77111;SDS011;66064;50.226;14.344;2023-02-07T04:00:05;77.03;;;70.65;;
77111;SDS011;66064;50.226;14.344;2023-02-07T04:02:32;76.50;;;70.18;;
77111;SDS011;66064;50.226;14.344;2023-02-07T04:04:58;63.63;;;53.67;;
77111;SDS011;66064;50.226;14.344;2023-02-07T04:07:25;52.22;;;47.03;;
77111;SDS011;66064;50.226;14.344;2023-02-07T04:09:51;72.35;;;61.72;;
77111;SDS011;66064;50.226;14.344;2023-02-07T04:12:17;81.60;;;75.28;;
77111;SDS011;66064;50.226;14.344;2023-02-07T04:14:42;84.60;;;76.20;;
77111;SDS011;66064;50.226;14.344;2023-02-07T04:17:09;93.05;;;83.50;;
77111;SDS011;66064;50.226;14.344;2023-02-07T04:19:35;92.95;;;82.97;;
77111;SDS011;66064;50.226;14.344;2023-02-07T04:22:01;93.75;;;84.18;;
77111;SDS011;66064;50.226;14.344;2023-02-07T04:24:26;119.47;;;89.28;;
77111;SDS011;66064;50.226;14.344;2023-02-07T04:26:57;83.07;;;75.03;;
77111;SDS011;66064;50.226;14.344;2023-02-07T04:29:23;94.53;;;84.97;;
77111;SDS011;66064;50.226;14.344;2023-02-07T04:31:49;89.03;;;80.38;;
77111;SDS011;66064;50.226;14.344;2023-02-07T04:34:15;94.25;;;84.45;;
77111;SDS011;66064;50.226;14.344;2023-02-07T04:36:42;69.13;;;61.15;;
77111;SDS011;66064;50.226;14.344;2023-02-07T04:39:08;78.00;;;70.22;;
77111;SDS011;66064;50.226;14.344;2023-02-07T04:41:34;68.03;;;54.00;;
77111;SDS011;66064;50.226;14.344;2023-02-07T04:44:00;78.10;;;71.03;;
77111;SDS011;66064;50.226;14.344;2023-02-07T04:46:26;85.30;;;77.85;;
77111;SDS011;66064;50.226;14.344;2023-02-07T04:48:52;84.75;;;77.15;;
77111;SDS011;66064;50.226;14.344;2023-02-07T04:51:18;61.38;;;50.30;;
77111;SDS011;66064;50.226;14.344;2023-02-07T04:53:44;77.95;;;69.70;;
77111;SDS011;66064;50.226;14.344;2023-02-07T04:56:10;62.92;;;56.05;;
77111;SDS011;66064;50.226;14.344;2023-02-07T04:58:36;81.85;;;73.88;;
77111;SDS011;66064;50.226;14.344;2023-02-07T05:01:02;84.60;;;76.95;;
77111;SDS011;66064;50.226;14.344;2023-02-07T05:03:28;85.20;;;76.30;;
77111;SDS011;66064;50.226;14.344;2023-02-07T05:05:54;95.47;;;86.97;;
77111;SDS011;66064;50.226;14.344;2023-02-07T05:08:20;98.03;;;70.22;;
77111;SDS011;66064;50.226;14.344;2023-02-07T05:10:50;122.60;;;97.97;;
77111;SDS011;66064;50.226;14.344;2023-02-07T05:13:16;132.05;;;106.45;;
77111;SDS011;66064;50.226;14.344;2023-02-07T05:15:42;100.78;;;91.22;;
77111;SDS011;66064;50.226;14.344;2023-02-07T05:18:08;113.20;;;101.03;;
77111;SDS011;66064;50.226;14.344;2023-02-07T05:20:34;93.72;;;74.65;;
77111;SDS011;66064;50.226;14.344;2023-02-07T05:23:00;100.63;;;90.78;;
77111;SDS011;66064;50.226;14.344;2023-02-07T05:25:26;103.68;;;94.78;;
77111;SDS011;66064;50.226;14.344;2023-02-07T05:27:52;110.88;;;99.90;;
77111;SDS011;66064;50.226;14.344;2023-02-07T05:30:18;118.72;;;102.22;;
77111;SDS011;66064;50.226;14.344;2023-02-07T05:32:44;130.88;;;107.72;;
77111;SDS011;66064;50.226;14.344;2023-02-07T05:35:29;94.60;;;82.72;;
77111;SDS011;66064;50.226;14.344;2023-02-07T05:38:18;97.10;;;87.13;;
77111;SDS011;66064;50.226;14.344;2023-02-07T05:40:44;90.25;;;80.55;;
77111;SDS011;66064;50.226;14.344;2023-02-07T05:43:12;89.55;;;73.65;;
77111;SDS011;66064;50.226;14.344;2023-02-07T05:45:38;106.07;;;94.95;;
77111;SDS011;66064;50.226;14.344;2023-02-07T05:48:05;111.85;;;99.50;;
77111;SDS011;66064;50.226;14.344;2023-02-07T05:50:31;104.63;;;94.30;;
77111;SDS011;66064;50.226;14.344;2023-02-07T05:52:57;82.05;;;71.25;;
77111;SDS011;66064;50.226;14.344;2023-02-07T05:55:23;90.82;;;79.78;;
77111;SDS011;66064;50.226;14.344;2023-02-07T05:57:49;120.68;;;94.47;;
77111;SDS011;66064;50.226;14.344;2023-02-07T06:00:16;108.85;;;97.28;;
77111;SDS011;66064;50.226;14.344;2023-02-07T06:02:43;65.80;;;55.38;;
77111;SDS011;66064;50.226;14.344;2023-02-07T06:05:10;78.53;;;71.65;;
77111;SDS011;66064;50.226;14.344;2023-02-07T06:07:37;78.85;;;72.05;;
77111;SDS011;66064;50.226;14.344;2023-02-07T06:10:03;84.78;;;77.57;;
77111;SDS011;66064;50.226;14.344;2023-02-07T06:12:30;90.70;;;82.75;;
77111;SDS011;66064;50.226;14.344;2023-02-07T06:14:57;70.78;;;56.97;;
77111;SDS011;66064;50.226;14.344;2023-02-07T06:17:23;90.53;;;82.00;;
77111;SDS011;66064;50.226;14.344;2023-02-07T06:19:49;89.28;;;80.25;;
77111;SDS011;66064;50.226;14.344;2023-02-07T06:22:16;90.32;;;81.18;;
77111;SDS011;66064;50.226;14.344;2023-02-07T06:24:42;71.53;;;55.80;;
77111;SDS011;66064;50.226;14.344;2023-02-07T06:27:08;93.35;;;84.55;;
77111;SDS011;66064;50.226;14.344;2023-02-07T06:29:34;98.78;;;89.18;;
77111;SDS011;66064;50.226;14.344;2023-02-07T06:32:00;79.63;;;72.82;;
77111;SDS011;66064;50.226;14.344;2023-02-07T06:34:26;80.28;;;73.32;;
77111;SDS011;66064;50.226;14.344;2023-02-07T06:36:52;61.63;;;57.70;;
77111;SDS011;66064;50.226;14.344;2023-02-07T06:39:18;52.75;;;47.05;;
77111;SDS011;66064;50.226;14.344;2023-02-07T06:41:44;73.15;;;66.50;;
77111;SDS011;66064;50.226;14.344;2023-02-07T06:44:10;76.57;;;70.25;;
77111;SDS011;66064;50.226;14.344;2023-02-07T06:46:36;84.97;;;76.00;;
77111;SDS011;66064;50.226;14.344;2023-02-07T06:49:02;78.40;;;70.65;;
77111;SDS011;66064;50.226;14.344;2023-02-07T06:51:28;87.00;;;78.57;;
77111;SDS011;66064;50.226;14.344;2023-02-07T06:53:54;95.70;;;86.30;;
77111;SDS011;66064;50.226;14.344;2023-02-07T06:56:20;113.63;;;102.28;;
77111;SDS011;66064;50.226;14.344;2023-02-07T06:58:46;103.10;;;92.03;;
77111;SDS011;66064;50.226;14.344;2023-02-07T07:01:11;92.35;;;78.45;;
77111;SDS011;66064;50.226;14.344;2023-02-07T07:03:37;105.80;;;95.43;;
77111;SDS011;66064;50.226;14.344;2023-02-07T07:06:03;103.13;;;92.05;;
77111;SDS011;66064;50.226;14.344;2023-02-07T07:08:29;97.93;;;87.55;;
77111;SDS011;66064;50.226;14.344;2023-02-07T07:10:55;113.22;;;100.63;;
77111;SDS011;66064;50.226;14.344;2023-02-07T07:13:22;101.90;;;78.65;;
77111;SDS011;66064;50.226;14.344;2023-02-07T07:15:48;101.82;;;88.00;;
77111;SDS011;66064;50.226;14.344;2023-02-07T07:18:14;90.90;;;81.13;;
77111;SDS011;66064;50.226;14.344;2023-02-07T07:20:39;95.55;;;77.15;;
77111;SDS011;66064;50.226;14.344;2023-02-07T07:23:06;81.45;;;71.97;;
77111;SDS011;66064;50.226;14.344;2023-02-07T07:25:31;82.40;;;73.57;;
77111;SDS011;66064;50.226;14.344;2023-02-07T07:27:57;75.97;;;66.97;;
77111;SDS011;66064;50.226;14.344;2023-02-07T07:30:23;79.60;;;67.65;;
77111;SDS011;66064;50.226;14.344;2023-02-07T07:32:49;57.50;;;52.03;;
77111;SDS011;66064;50.226;14.344;2023-02-07T07:35:15;55.33;;;41.83;;
77111;SDS011;66064;50.226;14.344;2023-02-07T07:37:41;65.43;;;52.22;;
77111;SDS011;66064;50.226;14.344;2023-02-07T07:40:07;72.22;;;64.55;;
77111;SDS011;66064;50.226;14.344;2023-02-07T07:42:34;69.68;;;62.63;;
77111;SDS011;66064;50.226;14.344;2023-02-07T07:45:01;59.53;;;52.35;;
77111;SDS011;66064;50.226;14.344;2023-02-07T07:47:27;58.50;;;44.45;;
77111;SDS011;66064;50.226;14.344;2023-02-07T07:49:53;61.55;;;55.50;;
77111;SDS011;66064;50.226;14.344;2023-02-07T07:52:19;71.80;;;64.30;;
77111;SDS011;66064;50.226;14.344;2023-02-07T07:54:46;70.00;;;62.33;;
77111;SDS011;66064;50.226;14.344;2023-02-07T07:57:12;77.35;;;56.38;;
77111;SDS011;66064;50.226;14.344;2023-02-07T07:59:37;78.20;;;70.35;;
77111;SDS011;66064;50.226;14.344;2023-02-07T08:02:03;64.75;;;57.88;;
77111;SDS011;66064;50.226;14.344;2023-02-07T08:04:29;60.75;;;48.50;;
77111;SDS011;66064;50.226;14.344;2023-02-07T08:06:55;55.40;;;46.25;;
77111;SDS011;66064;50.226;14.344;2023-02-07T08:09:21;73.38;;;61.60;;
77111;SDS011;66064;50.226;14.344;2023-02-07T08:11:48;68.85;;;62.22;;
77111;SDS011;66064;50.226;14.344;2023-02-07T08:14:13;68.47;;;60.33;;
77111;SDS011;66064;50.226;14.344;2023-02-07T08:16:39;69.88;;;52.08;;
77111;SDS011;66064;50.226;14.344;2023-02-07T08:19:07;89.35;;;77.63;;
77111;SDS011;66064;50.226;14.344;2023-02-07T08:21:36;80.50;;;63.63;;
77111;SDS011;66064;50.226;14.344;2023-02-07T08:24:01;104.57;;;74.90;;
77111;SDS011;66064;50.226;14.344;2023-02-07T08:26:28;86.72;;;74.82;;
77111;SDS011;66064;50.226;14.344;2023-02-07T08:28:53;80.18;;;70.88;;
77111;SDS011;66064;50.226;14.344;2023-02-07T08:31:19;86.60;;;57.22;;
77111;SDS011;66064;50.226;14.344;2023-02-07T08:33:45;85.50;;;65.68;;
77111;SDS011;66064;50.226;14.344;2023-02-07T08:36:11;75.45;;;63.13;;
77111;SDS011;66064;50.226;14.344;2023-02-07T08:38:37;67.22;;;59.78;;
77111;SDS011;66064;50.226;14.344;2023-02-07T08:41:03;68.82;;;47.45;;
77111;SDS011;66064;50.226;14.344;2023-02-07T08:43:29;73.18;;;51.90;;
77111;SDS011;66064;50.226;14.344;2023-02-07T08:45:56;69.90;;;59.45;;
77111;SDS011;66064;50.226;14.344;2023-02-07T08:48:22;76.18;;;67.78;;
77111;SDS011;66064;50.226;14.344;2023-02-07T08:50:48;76.18;;;62.33;;
77111;SDS011;66064;50.226;14.344;2023-02-07T08:53:14;78.63;;;50.85;;
77111;SDS011;66064;50.226;14.344;2023-02-07T08:55:40;94.32;;;75.30;;
77111;SDS011;66064;50.226;14.344;2023-02-07T08:58:06;79.88;;;65.82;;
77111;SDS011;66064;50.226;14.344;2023-02-07T09:00:32;85.75;;;71.35;;
77111;SDS011;66064;50.226;14.344;2023-02-07T09:03:01;85.95;;;68.40;;
77111;SDS011;66064;50.226;14.344;2023-02-07T09:05:29;79.80;;;62.10;;
77111;SDS011;66064;50.226;14.344;2023-02-07T09:07:58;72.13;;;47.80;;
77111;SDS011;66064;50.226;14.344;2023-02-07T09:10:24;80.93;;;62.20;;
77111;SDS011;66064;50.226;14.344;2023-02-07T09:12:50;71.55;;;48.67;;
77111;SDS011;66064;50.226;14.344;2023-02-07T09:15:17;83.68;;;67.10;;
77111;SDS011;66064;50.226;14.344;2023-02-07T09:17:42;86.95;;;73.80;;
77111;SDS011;66064;50.226;14.344;2023-02-07T09:20:09;101.22;;;74.38;;
77111;SDS011;66064;50.226;14.344;2023-02-07T09:22:36;94.15;;;66.90;;
77111;SDS011;66064;50.226;14.344;2023-02-07T09:25:22;83.20;;;63.92;;
77111;SDS011;66064;50.226;14.344;2023-02-07T09:27:48;74.85;;;66.88;;
77111;SDS011;66064;50.226;14.344;2023-02-07T09:30:15;75.40;;;67.25;;
77111;SDS011;66064;50.226;14.344;2023-02-07T09:32:42;77.70;;;69.53;;
77111;SDS011;66064;50.226;14.344;2023-02-07T09:35:08;79.20;;;56.10;;
77111;SDS011;66064;50.226;14.344;2023-02-07T09:37:34;73.65;;;60.70;;
77111;SDS011;66064;50.226;14.344;2023-02-07T09:40:00;79.97;;;65.07;;
77111;SDS011;66064;50.226;14.344;2023-02-07T09:45:03;59.20;;;45.40;;
77111;SDS011;66064;50.226;14.344;2023-02-07T09:47:35;64.50;;;43.42;;
77111;SDS011;66064;50.226;14.344;2023-02-07T09:50:14;80.00;;;66.47;;
77111;SDS011;66064;50.226;14.344;2023-02-07T09:55:20;78.93;;;65.35;;
77111;SDS011;66064;50.226;14.344;2023-02-07T09:57:51;75.45;;;56.38;;
77111;SDS011;66064;50.226;14.344;2023-02-07T10:02:51;75.25;;;57.55;;
77111;SDS011;66064;50.226;14.344;2023-02-07T10:05:35;75.57;;;50.08;;
77111;SDS011;66064;50.226;14.344;2023-02-07T10:08:22;79.13;;;60.65;;
77111;SDS011;66064;50.226;14.344;2023-02-07T10:16:18;78.95;;;57.50;;
77111;SDS011;66064;50.226;14.344;2023-02-07T10:25:07;75.60;;;58.85;;
77111;SDS011;66064;50.226;14.344;2023-02-07T10:30:39;90.03;;;66.07;;
77111;SDS011;66064;50.226;14.344;2023-02-07T10:33:19;82.53;;;55.35;;
77111;SDS011;66064;50.226;14.344;2023-02-07T10:35:48;90.97;;;54.92;;
77111;SDS011;66064;50.226;14.344;2023-02-07T10:41:37;80.82;;;59.75;;
77111;SDS011;66064;50.226;14.344;2023-02-07T10:44:07;72.80;;;55.08;;
77111;SDS011;66064;50.226;14.344;2023-02-07T10:46:36;76.85;;;47.47;;
77111;SDS011;66064;50.226;14.344;2023-02-07T10:49:05;79.18;;;53.03;;
77111;SDS011;66064;50.226;14.344;2023-02-07T10:51:40;69.50;;;46.80;;
77111;SDS011;66064;50.226;14.344;2023-02-07T11:05:05;69.90;;;52.80;;
77111;SDS011;66064;50.226;14.344;2023-02-07T11:07:40;66.68;;;44.25;;
77111;SDS011;66064;50.226;14.344;2023-02-07T11:10:14;70.35;;;53.20;;
77111;SDS011;66064;50.226;14.344;2023-02-07T11:12:46;68.53;;;45.97;;
77111;SDS011;66064;50.226;14.344;2023-02-07T11:17:47;64.88;;;47.50;;
77111;SDS011;66064;50.226;14.344;2023-02-07T11:22:51;65.88;;;49.33;;
77111;SDS011;66064;50.226;14.344;2023-02-07T11:28:28;58.65;;;41.58;;
77111;SDS011;66064;50.226;14.344;2023-02-07T11:31:05;56.40;;;40.25;;
77111;SDS011;66064;50.226;14.344;2023-02-07T11:33:34;72.60;;;55.63;;
77111;SDS011;66064;50.226;14.344;2023-02-07T11:38:57;63.60;;;46.95;;
77111;SDS011;66064;50.226;14.344;2023-02-07T11:43:59;57.30;;;39.72;;
77111;SDS011;66064;50.226;14.344;2023-02-07T11:46:35;54.92;;;41.10;;
77111;SDS011;66064;50.226;14.344;2023-02-07T11:49:06;56.00;;;40.47;;
77111;SDS011;66064;50.226;14.344;2023-02-07T11:51:45;54.53;;;37.78;;
77111;SDS011;66064;50.226;14.344;2023-02-07T11:54:14;53.95;;;39.42;;
77111;SDS011;66064;50.226;14.344;2023-02-07T11:56:41;54.83;;;37.70;;
77111;SDS011;66064;50.226;14.344;2023-02-07T11:59:12;47.33;;;36.90;;
77111;SDS011;66064;50.226;14.344;2023-02-07T12:01:42;46.08;;;36.42;;
77111;SDS011;66064;50.226;14.344;2023-02-07T12:04:15;41.33;;;28.17;;
77111;SDS011;66064;50.226;14.344;2023-02-07T12:11:59;44.13;;;35.00;;
77111;SDS011;66064;50.226;14.344;2023-02-07T12:14:45;47.20;;;33.95;;
77111;SDS011;66064;50.226;14.344;2023-02-07T12:17:19;45.45;;;35.63;;
77111;SDS011;66064;50.226;14.344;2023-02-07T12:19:52;45.40;;;33.97;;
77111;SDS011;66064;50.226;14.344;2023-02-07T12:22:30;53.70;;;41.20;;
77111;SDS011;66064;50.226;14.344;2023-02-07T12:25:21;47.08;;;36.55;;
77111;SDS011;66064;50.226;14.344;2023-02-07T12:27:54;43.95;;;32.15;;
77111;SDS011;66064;50.226;14.344;2023-02-07T12:30:40;54.17;;;41.92;;
77111;SDS011;66064;50.226;14.344;2023-02-07T12:33:30;54.53;;;37.67;;
77111;SDS011;66064;50.226;14.344;2023-02-07T12:36:38;53.22;;;37.67;;
77111;SDS011;66064;50.226;14.344;2023-02-07T12:39:51;58.15;;;41.05;;
77111;SDS011;66064;50.226;14.344;2023-02-07T12:45:05;60.70;;;41.38;;
77111;SDS011;66064;50.226;14.344;2023-02-07T12:50:24;67.35;;;41.85;;
77111;SDS011;66064;50.226;14.344;2023-02-07T13:06:50;44.85;;;32.08;;
77111;SDS011;66064;50.226;14.344;2023-02-07T13:12:03;41.13;;;35.88;;
77111;SDS011;66064;50.226;14.344;2023-02-07T13:23:11;37.38;;;27.50;;
77111;SDS011;66064;50.226;14.344;2023-02-07T13:25:44;41.08;;;33.13;;
77111;SDS011;66064;50.226;14.344;2023-02-07T13:28:15;40.67;;;26.80;;
77111;SDS011;66064;50.226;14.344;2023-02-07T13:30:54;46.53;;;37.00;;
77111;SDS011;66064;50.226;14.344;2023-02-07T13:35:57;37.97;;;27.20;;
77111;SDS011;66064;50.226;14.344;2023-02-07T13:38:44;38.42;;;32.15;;
77111;SDS011;66064;50.226;14.344;2023-02-07T13:44:04;43.78;;;30.77;;
77111;SDS011;66064;50.226;14.344;2023-02-07T13:49:52;46.83;;;35.53;;
77111;SDS011;66064;50.226;14.344;2023-02-07T13:52:29;47.78;;;38.00;;
77111;SDS011;66064;50.226;14.344;2023-02-07T13:57:42;37.15;;;28.23;;
77111;SDS011;66064;50.226;14.344;2023-02-07T14:03:00;27.55;;;23.70;;
77111;SDS011;66064;50.226;14.344;2023-02-07T14:05:30;29.17;;;25.08;;
77111;SDS011;66064;50.226;14.344;2023-02-07T14:08:01;35.30;;;27.02;;
77111;SDS011;66064;50.226;14.344;2023-02-07T14:13:43;34.22;;;26.50;;
77111;SDS011;66064;50.226;14.344;2023-02-07T14:16:11;32.17;;;23.23;;
77111;SDS011;66064;50.226;14.344;2023-02-07T14:23:57;36.97;;;26.98;;
77111;SDS011;66064;50.226;14.344;2023-02-07T14:29:38;32.28;;;26.20;;
77111;SDS011;66064;50.226;14.344;2023-02-07T14:32:22;42.67;;;32.40;;
77111;SDS011;66064;50.226;14.344;2023-02-07T14:37:51;108.95;;;70.65;;
77111;SDS011;66064;50.226;14.344;2023-02-07T14:40:24;74.43;;;50.35;;
77111;SDS011;66064;50.226;14.344;2023-02-07T14:45:39;49.35;;;36.13;;
77111;SDS011;66064;50.226;14.344;2023-02-07T14:51:10;60.97;;;48.88;;
77111;SDS011;66064;50.226;14.344;2023-02-07T14:53:40;50.40;;;33.30;;
77111;SDS011;66064;50.226;14.344;2023-02-07T14:56:24;51.72;;;33.05;;
77111;SDS011;66064;50.226;14.344;2023-02-07T14:59:07;59.75;;;37.85;;
77111;SDS011;66064;50.226;14.344;2023-02-07T15:01:36;63.10;;;55.47;;
77111;SDS011;66064;50.226;14.344;2023-02-07T15:04:03;58.50;;;49.42;;
77111;SDS011;66064;50.226;14.344;2023-02-07T15:06:40;55.88;;;43.65;;
77111;SDS011;66064;50.226;14.344;2023-02-07T15:09:18;69.47;;;62.28;;
77111;SDS011;66064;50.226;14.344;2023-02-07T15:11:52;47.13;;;42.08;;
77111;SDS011;66064;50.226;14.344;2023-02-07T15:14:31;45.03;;;33.40;;
77111;SDS011;66064;50.226;14.344;2023-02-07T15:16:58;45.20;;;40.60;;
77111;SDS011;66064;50.226;14.344;2023-02-07T15:19:32;41.38;;;37.03;;
77111;SDS011;66064;50.226;14.344;2023-02-07T15:22:01;45.47;;;41.38;;
77111;SDS011;66064;50.226;14.344;2023-02-07T15:27:06;44.03;;;39.33;;
77111;SDS011;66064;50.226;14.344;2023-02-07T15:29:43;62.88;;;46.38;;
77111;SDS011;66064;50.226;14.344;2023-02-07T15:32:20;48.08;;;42.33;;
77111;SDS011;66064;50.226;14.344;2023-02-07T15:34:47;41.50;;;37.15;;
77111;SDS011;66064;50.226;14.344;2023-02-07T15:37:19;25.15;;;22.52;;
77111;SDS011;66064;50.226;14.344;2023-02-07T15:39:51;34.13;;;25.00;;
77111;SDS011;66064;50.226;14.344;2023-02-07T15:42:18;43.85;;;39.90;;
77111;SDS011;66064;50.226;14.344;2023-02-07T15:44:49;29.75;;;26.15;;
77111;SDS011;66064;50.226;14.344;2023-02-07T15:49:57;40.40;;;36.90;;
77111;SDS011;66064;50.226;14.344;2023-02-07T15:52:31;29.65;;;26.63;;
77111;SDS011;66064;50.226;14.344;2023-02-07T15:55:03;27.38;;;24.15;;
77111;SDS011;66064;50.226;14.344;2023-02-07T15:57:42;39.05;;;35.60;;
77111;SDS011;66064;50.226;14.344;2023-02-07T16:00:22;44.88;;;41.47;;
77111;SDS011;66064;50.226;14.344;2023-02-07T16:02:55;42.17;;;38.58;;
77111;SDS011;66064;50.226;14.344;2023-02-07T16:05:31;30.65;;;27.33;;
77111;SDS011;66064;50.226;14.344;2023-02-07T16:08:24;30.33;;;23.40;;
77111;SDS011;66064;50.226;14.344;2023-02-07T16:14:16;38.00;;;34.78;;
77111;SDS011;66064;50.226;14.344;2023-02-07T16:16:51;39.17;;;35.92;;
77111;SDS011;66064;50.226;14.344;2023-02-07T16:19:19;30.27;;;27.02;;
77111;SDS011;66064;50.226;14.344;2023-02-07T16:22:06;49.53;;;45.15;;
77111;SDS011;66064;50.226;14.344;2023-02-07T16:24:36;47.95;;;43.25;;
77111;SDS011;66064;50.226;14.344;2023-02-07T16:27:06;93.82;;;63.97;;
77111;SDS011;66064;50.226;14.344;2023-02-07T16:29:33;70.07;;;62.97;;
77111;SDS011;66064;50.226;14.344;2023-02-07T16:32:02;95.32;;;73.47;;
77111;SDS011;66064;50.226;14.344;2023-02-07T16:34:28;72.90;;;65.97;;
77111;SDS011;66064;50.226;14.344;2023-02-07T16:36:55;54.30;;;45.45;;
77111;SDS011;66064;50.226;14.344;2023-02-07T16:39:21;82.03;;;74.03;;
77111;SDS011;66064;50.226;14.344;2023-02-07T16:41:49;52.35;;;36.72;;
77111;SDS011;66064;50.226;14.344;2023-02-07T16:44:20;57.00;;;51.25;;
77111;SDS011;66064;50.226;14.344;2023-02-07T16:46:51;82.88;;;74.13;;
77111;SDS011;66064;50.226;14.344;2023-02-07T16:49:19;69.68;;;53.75;;
77111;SDS011;66064;50.226;14.344;2023-02-07T16:51:46;66.53;;;60.17;;
77111;SDS011;66064;50.226;14.344;2023-02-07T16:54:12;56.75;;;50.88;;
77111;SDS011;66064;50.226;14.344;2023-02-07T16:56:42;66.13;;;45.63;;
77111;SDS011;66064;50.226;14.344;2023-02-07T16:59:16;63.38;;;57.35;;
77111;SDS011;66064;50.226;14.344;2023-02-07T17:01:44;61.03;;;54.95;;
77111;SDS011;66064;50.226;14.344;2023-02-07T17:04:10;64.10;;;58.10;;
77111;SDS011;66064;50.226;14.344;2023-02-07T17:06:37;79.38;;;71.10;;
77111;SDS011;66064;50.226;14.344;2023-02-07T17:09:04;79.97;;;71.13;;
77111;SDS011;66064;50.226;14.344;2023-02-07T17:11:38;55.10;;;47.67;;